Latest Coastal Weather Observations for Mandora

IDW60701

Issued at 12:55 pm WST Wednesday 30 July 2014 (issued every 10 minutes, with the page automatically refreshed every 10 minutes)

About coastal observations | Map of coastal stations | Coastal observations for WA | Marine services | Other Formats
Station Details ID: 004019 Name: MANDORA Lat: -19.74 Lon: 120.84 Height: 7.5 m
Data from the previous 72 hours. | See also: Recent months at Mandora
Date/Time
WST
Temp

°C
Wind Pressure Rain
since 9am
mm
Weather Cloud Vis
km
Sea
Height
m
Swell
Dir
 
Speed
knots
Gust
knots
hPa Trend Height
m
Period
s
Dir
30/12:30pm 32.0 ESE 9 14 1016.6 - 0.0 - - - - - - -
30/12:00pm 32.0 E 10 16 1017.0 - 0.0 - - - - - - -
30/11:30am 32.0 E 10 16 1017.5 - 0.0 - - - - - - -
30/11:00am 30.9 E 11 18 1018.0 - 0.0 - - - - - - -
30/10:30am 30.1 ESE 12 19 1018.3 - 0.0 - - - - - - -
30/10:00am 28.8 ESE 12 19 1018.7 - 0.0 - - - - - - -
30/09:30am 28.2 ESE 11 16 1018.8 - 0.0 - - - - - - -
30/09:00am 26.9 ESE 10 18 1019.0 - 0.0 - - - - - - -
30/08:30am 25.2 ESE 9 14 1019.0 - 0.0 - - - - - - -
30/08:00am 22.2 ESE 9 14 1018.9 - 0.0 - - - - - - -
30/07:30am 19.1 SE 8 11 1018.6 - 0.0 - - - - - - -
30/07:00am 17.0 SE 6 8 1018.4 - 0.0 - - - - - - -
30/06:30am 15.8 SE 6 8 1018.0 - 0.0 - - - - - - -
30/06:00am 16.8 ESE 6 8 1017.5 - 0.0 - - - - - - -
30/05:30am 17.8 SE 7 10 1017.2 - 0.0 - - - - - - -
30/05:00am 18.2 SE 6 9 1017.0 - 0.0 - - - - - - -
30/04:30am 19.0 SE 7 10 1016.8 - 0.0 - - - - - - -
30/04:00am 19.1 ESE 6 8 1016.8 - 0.0 - - - - - - -
30/03:30am 21.4 SE 9 13 1016.4 - 0.0 - - - - - - -
30/03:00am 21.3 SE 9 13 1016.5 - 0.0 - - - - - - -
30/02:30am 21.2 SE 8 11 1016.7 - 0.0 - - - - - - -
30/02:00am 20.9 SE 8 14 1016.9 - 0.0 - - - - - - -
30/01:30am 21.5 SE 9 12 1016.9 - 0.0 - - - - - - -
30/01:00am 21.3 SE 8 12 1017.1 - 0.0 - - - - - - -
30/12:30am 20.5 SE 7 10 1017.1 - 0.0 - - - - - - -
30/12:00am 19.3 SE 5 8 1017.1 - 0.0 - - - - - - -
 
Date/Time
WST
Temp

°C
Wind Pressure Rain
since 9am
mm
Weather Cloud Vis
km
Sea
Height
m
Swell
Dir
 
Speed
knots
Gust
knots
hPa Trend Height
m
Period
s
Dir
29/11:30pm 19.1 ESE 6 10 1017.2 - 0.0 - - - - - - -
29/11:00pm 19.5 SSE 5 6 1017.0 - 0.0 - - - - - - -
29/10:30pm 19.3 SSE 5 7 1017.2 - 0.0 - - - - - - -
29/10:00pm 20.5 SSE 5 8 1017.2 - 0.0 - - - - - - -
29/09:30pm 21.1 S 7 8 1017.1 - 0.0 - - - - - - -
29/09:00pm 22.2 SSE 6 8 1017.1 - 0.0 - - - - - - -
29/08:30pm 22.2 SSE 5 7 1016.9 - 0.0 - - - - - - -
29/08:00pm 23.3 SSE 7 8 1016.9 - 0.0 - - - - - - -
29/07:30pm 23.9 SSE 6 7 1016.7 - 0.0 - - - - - - -
29/07:00pm 22.8 S 5 6 1016.3 - 0.0 - - - - - - -
29/06:30pm 24.3 SSE 4 5 1016.2 - 0.0 - - - - - - -
29/06:00pm 26.1 SSE 4 5 1015.9 - 0.0 - - - - - - -
29/05:30pm 28.9 SE 4 5 1015.8 - 0.0 - - - - - - -
29/05:00pm 30.2 SE 4 7 1015.5 - 0.0 - - - - - - -
29/04:30pm 30.8 NE 5 7 1015.2 - 0.0 - - - - - - -
29/04:00pm 32.1 E 5 8 1015.2 - 0.0 - - - - - - -
29/03:30pm 31.8 E 6 9 1015.1 - 0.0 - - - - - - -
29/03:00pm 32.2 ESE 5 12 1015.0 - 0.0 - - - - - - -
29/02:30pm 32.6 ENE 8 14 1015.1 - 0.0 - - - - - - -
29/02:00pm 33.6 E 8 14 1015.2 - 0.0 - - - - - - -
29/01:30pm 33.2 E 10 16 1015.4 - 0.0 - - - - - - -
29/01:00pm 33.4 E 10 18 1015.8 - 0.0 - - - - - - -
29/12:30pm 32.6 ESE 12 20 1016.2 - 0.0 - - - - - - -
29/12:00pm 32.4 E 11 19 1016.6 - 0.0 - - - - - - -
29/11:30am 31.6 ESE 13 21 1017.1 - 0.0 - - - - - - -
29/11:00am 30.8 ESE 13 20 1017.5 - 0.0 - - - - - - -
29/10:30am 29.8 ESE 14 23 1018.0 - 0.0 - - - - - - -
29/10:00am 29.4 ESE 10 17 1018.3 - 0.0 - - - - - - -
29/09:30am 27.7 ESE 11 18 1018.5 - 0.0 - - - - - - -
29/09:00am 25.9 ESE 12 17 1018.5 - 0.0 - - - - - - -
29/08:30am 25.2 ESE 9 15 1018.5 - 0.0 - - - - - - -
29/08:00am 23.8 SE 9 14 1018.2 - 0.0 - - - - - - -
29/07:30am 22.3 SE 7 11 1017.8 - 0.0 - - - - - - -
29/07:00am 21.7 SE 7 9 1017.4 - 0.0 - - - - - - -
29/06:30am 21.9 SE 8 11 1017.2 - 0.0 - - - - - - -
29/06:00am 22.0 SE 6 10 1016.8 - 0.0 - - - - - - -
29/05:30am 21.7 SE 5 7 1016.6 - 0.0 - - - - - - -
29/05:00am 22.2 SSE 6 9 1016.5 - 0.0 - - - - - - -
29/04:30am 21.7 SSE 5 8 1016.3 - 0.0 - - - - - - -
29/04:00am 21.7 SSE 5 7 1016.4 - 0.0 - - - - - - -
29/03:30am 22.5 SSE 6 8 1016.4 - 0.0 - - - - - - -
29/03:00am 23.0 SSE 7 11 1016.3 - 0.0 - - - - - - -
29/02:30am 22.8 SSE 7 10 1016.3 - 0.0 - - - - - - -
29/02:00am 22.9 SSE 6 9 1016.3 - 0.0 - - - - - - -
29/01:30am 23.1 SSE 7 11 1016.3 - 0.0 - - - - - - -
29/01:00am 22.5 SSE 9 11 1016.5 - 0.0 - - - - - - -
29/12:30am 21.5 SSE 7 10 1016.8 - 0.0 - - - - - - -
29/12:00am 21.4 SSE 8 10 1016.7 - 0.0 - - - - - - -
 
Date/Time
WST
Temp

°C
Wind Pressure Rain
since 9am
mm
Weather Cloud Vis
km
Sea
Height
m
Swell
Dir
 
Speed
knots
Gust
knots
hPa Trend Height
m
Period
s
Dir
28/11:30pm 21.5 SSE 7 11 1016.7 - 0.0 - - - - - - -
28/11:00pm 21.1 S 7 9 1016.8 - 0.0 - - - - - - -
28/10:30pm 21.3 S 6 8 1016.9 - 0.0 - - - - - - -
28/10:00pm 21.7 SSE 7 8 1016.8 - 0.0 - - - - - - -
28/09:30pm 22.0 S 7 9 1016.9 - 0.0 - - - - - - -
28/09:00pm 22.1 S 6 8 1016.9 - 0.0 - - - - - - -
28/08:30pm 23.5 SSE 6 9 1016.8 - 0.0 - - - - - - -
28/08:00pm 23.4 SSE 7 9 1016.8 - 0.0 - - - - - - -
28/07:30pm 22.7 SSE 6 7 1016.5 - 0.0 - - - - - - -
28/07:00pm 22.8 SSE 6 7 1016.2 - 0.0 - - - - - - -
28/06:30pm 23.9 SSE 6 7 1015.8 - 0.0 - - - - - - -
28/06:00pm 24.7 SSE 5 6 1015.4 - 0.0 - - - - - - -
28/05:30pm 27.7 SE 4 6 1015.2 - 0.0 - - - - - - -
28/05:00pm 30.1 SE 6 8 1015.0 - 0.0 - - - - - - -
28/04:30pm 31.1 SSE 4 7 1014.8 - 0.0 - - - - - - -
28/04:00pm 31.7 ESE 4 6 1014.7 - 0.0 - - - - - - -
28/03:30pm 32.1 SE 7 10 1014.7 - 0.0 - - - - - - -
28/03:00pm 32.7 ESE 6 11 1014.8 - 0.0 - - - - - - -
28/02:30pm 32.6 E 6 10 1015.0 - 0.0 - - - - - - -
28/02:00pm 32.5 E 7 12 1015.2 - 0.0 - - - - - - -
28/01:30pm 32.3 SE 9 15 1015.7 - 0.0 - - - - - - -
28/01:00pm 31.5 SE 12 18 1016.1 - 0.0 - - - - - - -
28/12:30pm 32.0 E 11 15 1016.6 - 0.0 - - - - - - -
28/12:00pm 30.9 ESE 12 20 1017.4 - 0.0 - - - - - - -
28/11:30am 30.8 ESE 12 19 1018.0 - 0.0 - - - - - - -
28/11:00am 30.2 ESE 15 24 1018.5 - 0.0 - - - - - - -
28/10:30am 29.7 ESE 14 21 1019.0 - 0.0 - - - - - - -
28/10:00am 28.8 ESE 12 20 1019.2 - 0.0 - - - - - - -
28/09:30am 27.0 SE 10 15 1019.3 - 0.0 - - - - - - -
28/09:00am 25.3 SE 9 16 1019.5 - 0.0 - - - - - - -
28/08:30am 22.8 SE 9 14 1019.4 - 0.0 - - - - - - -
28/08:00am 20.7 SE 10 15 1019.1 - 0.0 - - - - - - -
28/07:30am 17.9 SE 7 9 1018.9 - 0.0 - - - - - - -
28/07:00am 16.3 SE 6 9 1018.5 - 0.0 - - - - - - -
28/06:30am 15.3 SE 8 10 1018.2 - 0.0 - - - - - - -
28/06:00am 13.3 ESE 6 7 1017.9 - 0.0 - - - - - - -
28/05:30am 13.2 ESE 6 7 1017.6 - 0.0 - - - - - - -
28/05:00am 14.9 SE 6 8 1017.4 - 0.0 - - - - - - -
28/04:30am 11.4 SE 4 6 1017.4 - 0.0 - - - - - - -
28/04:00am 12.0 ESE 3 4 1017.2 - 0.0 - - - - - - -
28/03:30am 13.0 SE 4 5 1017.1 - 0.0 - - - - - - -
28/03:00am 15.0 SE 5 6 1016.9 - 0.0 - - - - - - -
28/02:30am 16.7 SSE 7 9 1017.0 - 0.0 - - - - - - -
28/02:00am 16.8 SSE 7 9 1017.2 - 0.0 - - - - - - -
28/01:30am 18.1 S 8 11 1017.4 - 0.0 - - - - - - -
28/01:00am 17.9 S 7 9 1017.4 - 0.0 - - - - - - -
28/12:30am 18.3 S 8 11 1017.7 - 0.0 - - - - - - -
28/12:00am 18.4 S 8 10 1017.9 - 0.0 - - - - - - -
 
Date/Time
WST
Temp

°C
Wind Pressure Rain
since 9am
mm
Weather Cloud Vis
km
Sea
Height
m
Swell
Dir
 
Speed
knots
Gust
knots
hPa Trend Height
m
Period
s
Dir
27/11:30pm 18.1 S 7 10 1017.8 - 0.0 - - - - - - -
27/11:00pm 18.9 S 8 10 1017.9 - 0.0 - - - - - - -
27/10:30pm 18.7 S 7 9 1018.0 - 0.0 - - - - - - -
27/10:00pm 19.0 S 7 8 1018.0 - 0.0 - - - - - - -
27/09:30pm 19.4 S 6 8 1017.9 - 0.0 - - - - - - -
27/09:00pm 20.0 S 7 9 1017.8 - 0.0 - - - - - - -
27/08:30pm 20.9 S 7 9 1017.9 - 0.0 - - - - - - -
27/08:00pm 20.3 S 7 8 1017.8 - 0.0 - - - - - - -
27/07:30pm 20.0 S 6 7 1017.6 - 0.0 - - - - - - -
27/07:00pm 20.9 SW 6 6 1017.3 - 0.0 - - - - - - -
27/06:30pm 21.0 SSW 4 6 1017.0 - 0.0 - - - - - - -
27/06:00pm 22.6 W 4 5 1016.7 - 0.0 - - - - - - -
27/05:30pm 26.1 WNW 3 4 1016.5 - 0.0 - - - - - - -
27/05:00pm 29.7 CALM 0 0 1016.3 - 0.0 - - - - - - -
27/04:30pm 30.8 ENE 3 6 1016.1 - 0.0 - - - - - - -
27/04:00pm 31.2 E 5 8 1016.0 - 0.0 - - - - - - -
27/03:30pm 31.1 NW 4 7 1015.7 - 0.0 - - - - - - -
27/03:00pm 31.5 ENE 5 8 1015.8 - 0.0 - - - - - - -
27/02:30pm 31.2 NE 5 9 1016.1 - 0.0 - - - - - - -
27/02:00pm 31.6 SE 6 11 1016.3 - 0.0 - - - - - - -
27/01:30pm 31.1 SE 7 11 1016.8 - 0.0 - - - - - - -
27/01:00pm 30.8 SE 7 11 1017.1 - 0.0 - - - - - - -

Other Formats:

Comma delimited format used in spreadsheet applications
http://www.bom.gov.au/fwo/IDW60701/IDW60701.94200.axf

JavaScript Object Notation format (JSON) in row-major order
http://www.bom.gov.au/fwo/IDW60701/IDW60701.94200.json